Time;durP1;ratioP1;P1;durP2;ratioP2;P2;SDS_P1;SDS_P2;PMS_P1;PMS_P2;Temp;Humidity;BMP_temperature;BMP_pressure;BME280_temperature;BME280_humidity;BME280_pressure;Samples;Min_cycle;Max_cycle;Signal;HPM_P1;HPM_P2
2023/07/24 00:01:50;;;;;;;2.90;2.30;;;;;;;20.59;100.00;99552.72;5024694;28;20056;-75
2023/07/24 00:04:18;;;;;;;4.22;2.58;;;;;;;20.70;99.82;99559.69;5003447;28;20038;-76
2023/07/24 00:06:48;;;;;;;6.68;2.70;;;;;;;20.72;99.89;99555.00;5007223;28;20616;-76
2023/07/24 00:09:16;;;;;;;5.03;2.88;;;;;;;20.73;98.42;99560.25;5018338;28;20049;-76
2023/07/24 00:11:49;;;;;;;3.08;2.33;;;;;;;20.76;93.52;99559.09;5021992;28;20124;-76
2023/07/24 00:14:17;;;;;;;2.97;2.23;;;;;;;20.83;88.94;99562.81;5018063;28;20045;-76
2023/07/24 00:16:45;;;;;;;3.50;2.40;;;;;;;20.92;85.83;99556.50;5036301;28;20100;-76
2023/07/24 00:19:14;;;;;;;6.15;2.25;;;;;;;20.93;86.00;99547.44;5035021;28;20068;-76
2023/07/24 00:21:42;;;;;;;3.20;2.10;;;;;;;20.99;82.21;99544.09;5039208;28;20047;-76
2023/07/24 00:24:13;;;;;;;3.60;2.15;;;;;;;21.05;82.28;99534.53;5034735;28;20053;-76
2023/07/24 00:26:41;;;;;;;3.28;2.33;;;;;;;21.09;82.16;99546.69;5030311;28;20052;-76
2023/07/24 00:29:10;;;;;;;3.22;2.47;;;;;;;21.06;81.65;99533.53;5016605;28;20053;-76
2023/07/24 00:31:39;;;;;;;2.80;2.10;;;;;;;21.10;81.22;99546.50;5036733;28;20041;-75
2023/07/24 00:34:12;;;;;;;3.90;2.40;;;;;;;21.12;80.95;99539.09;5012451;28;20065;-75
2023/07/24 00:36:40;;;;;;;4.07;2.30;;;;;;;20.90;80.70;99496.59;5053078;28;20037;-76
2023/07/24 00:39:10;;;;;;;6.10;2.55;;;;;;;21.15;79.41;99533.41;5031945;28;20045;-76
2023/07/24 00:41:40;;;;;;;3.05;2.38;;;;;;;21.20;79.03;99528.44;5025733;28;20054;-76
2023/07/24 00:44:08;;;;;;;3.42;2.33;;;;;;;21.24;78.39;99537.03;5023415;28;20172;-76
2023/07/24 00:46:37;;;;;;;5.05;3.20;;;;;;;21.23;76.72;99529.97;5029537;28;20038;-76
2023/07/24 00:49:05;;;;;;;4.90;3.30;;;;;;;21.33;75.72;99541.44;5020914;28;20052;-75
2023/07/24 00:51:34;;;;;;;5.32;3.30;;;;;;;21.32;74.56;99526.28;5032404;28;20045;-75
2023/07/24 00:54:04;;;;;;;4.90;3.33;;;;;;;21.43;73.95;99530.53;5020628;28;20516;-76
2023/07/24 00:56:33;;;;;;;5.20;3.80;;;;;;;21.45;73.96;99537.44;5023737;28;20057;-76
2023/07/24 00:59:03;;;;;;;9.93;3.90;;;;;;;21.39;74.24;99532.72;5018168;28;20148;-75
2023/07/24 01:01:31;;;;;;;4.28;3.50;;;;;;;21.40;75.60;99528.19;5023026;28;20524;-76
2023/07/24 01:03:59;;;;;;;6.78;3.90;;;;;;;21.35;75.47;99525.97;5019084;28;20044;-76
2023/07/24 01:06:27;;;;;;;10.13;3.35;;;;;;;21.31;78.18;99532.69;5021893;28;20153;-77
2023/07/24 01:08:57;;;;;;;6.22;3.30;;;;;;;21.20;81.15;99532.97;5027144;28;20041;-76
2023/07/24 01:11:29;;;;;;;3.55;2.83;;;;;;;21.08;85.16;99518.91;5018808;28;20088;-75
2023/07/24 01:14:03;;;;;;;5.72;2.60;;;;;;;20.93;90.06;99531.28;5003761;28;20050;-75
2023/07/24 01:16:37;;;;;;;4.95;2.75;;;;;;;20.71;93.15;99515.66;5025165;28;20038;-76
2023/07/24 01:19:14;;;;;;;3.60;2.42;;;;;;;20.63;95.90;99519.97;5012102;28;20072;-76
2023/07/24 01:21:58;;;;;;;3.50;2.47;;;;;;;20.50;97.63;99502.56;5026624;28;20046;-75
2023/07/24 01:24:35;;;;;;;4.35;2.70;;;;;;;20.50;98.44;99516.84;5000542;28;20053;-74
2023/07/24 01:27:05;;;;;;;3.78;2.50;;;;;;;20.32;100.00;99505.22;5029516;28;20056;-76
2023/07/24 01:29:33;;;;;;;;;;;;;;;20.30;100.00;99515.31;4999921;28;20152;-75
2023/07/24 01:32:01;;;;;;;7.18;2.47;;;;;;;20.17;100.00;99504.94;5015260;28;19921;-75
2023/07/24 01:34:30;;;;;;;3.42;2.28;;;;;;;20.08;100.00;99507.72;5012176;28;20048;-77
2023/07/24 01:36:58;;;;;;;4.47;3.05;;;;;;;19.98;100.00;99507.81;5023310;28;20294;-76
2023/07/24 01:39:28;;;;;;;3.55;2.20;;;;;;;19.88;100.00;99502.50;5022266;28;20504;-75
2023/07/24 01:41:56;;;;;;;4.45;2.40;;;;;;;19.89;100.00;99490.75;5017909;28;20045;-75
2023/07/24 01:44:28;;;;;;;4.32;2.40;;;;;;;19.86;100.00;99490.19;5011299;28;20129;-76
2023/07/24 01:46:56;;;;;;;5.32;2.75;;;;;;;19.83;100.00;99494.03;5011467;28;20355;-76
2023/07/24 01:49:26;;;;;;;5.45;2.40;;;;;;;19.82;100.00;99483.47;4990141;28;20045;-76
2023/07/24 01:51:54;;;;;;;5.93;2.80;;;;;;;19.80;100.00;99474.72;5029330;28;20045;-76
2023/07/24 01:54:22;;;;;;;3.17;2.50;;;;;;;19.75;100.00;99459.03;5023042;28;20064;-76
2023/07/24 01:56:50;;;;;;;4.97;2.60;;;;;;;19.82;100.00;99468.19;5021784;28;20514;-76
2023/07/24 01:59:18;;;;;;;6.53;3.40;;;;;;;19.75;100.00;99467.09;5021259;28;20052;-75
2023/07/24 02:01:49;;;;;;;4.65;2.60;;;;;;;19.74;100.00;99462.72;5005206;28;20038;-76
2023/07/24 02:04:21;;;;;;;4.03;2.80;;;;;;;19.76;100.00;99468.78;5013833;28;20100;-77
2023/07/24 02:06:50;;;;;;;3.88;2.55;;;;;;;19.77;100.00;99462.44;5013310;28;20067;-76
2023/07/24 02:09:19;;;;;;;4.03;2.67;;;;;;;19.80;100.00;99454.06;5010240;28;20375;-77
2023/07/24 02:11:48;;;;;;;4.00;2.60;;;;;;;19.85;100.00;99450.91;5020535;28;20141;-76
2023/07/24 02:14:18;;;;;;;5.68;2.60;;;;;;;19.91;100.00;99453.81;5021117;28;20042;-77
2023/07/24 02:16:46;;;;;;;;;;;;;;;19.95;100.00;99441.78;5009878;28;20141;-77
2023/07/24 02:19:16;;;;;;;4.82;2.85;;;;;;;19.99;100.00;99433.41;5021861;28;20030;-77
2023/07/24 02:21:44;;;;;;;3.92;2.30;;;;;;;19.95;100.00;99422.13;5018939;28;20038;-76
2023/07/24 02:24:13;;;;;;;4.63;2.85;;;;;;;19.79;100.00;99385.22;5017237;28;20107;-76
2023/07/24 02:26:41;;;;;;;7.53;2.95;;;;;;;19.80;100.00;99396.81;5027394;28;20069;-76
2023/07/24 02:29:10;;;;;;;4.88;2.80;;;;;;;19.61;100.00;99377.16;5032936;28;20051;-75
2023/07/24 02:31:38;;;;;;;5.15;2.85;;;;;;;19.67;100.00;99405.25;5021640;28;20045;-75
2023/07/24 02:34:08;;;;;;;6.85;3.00;;;;;;;19.58;100.00;99412.38;5015510;28;20053;-75
2023/07/24 02:36:38;;;;;;;;;;;;;;;19.57;100.00;99417.91;5001766;28;20092;-76
2023/07/24 02:39:06;;;;;;;3.42;2.55;;;;;;;19.52;100.00;99425.56;5023965;28;20016;-76
2023/07/24 02:41:36;;;;;;;3.22;2.80;;;;;;;19.46;100.00;99440.44;5030253;28;20038;-74
2023/07/24 02:44:05;;;;;;;3.90;2.88;;;;;;;19.41;100.00;99434.66;5034811;28;20052;-74
2023/07/24 02:46:33;;;;;;;4.90;2.58;;;;;;;19.39;100.00;99431.28;5036429;28;20056;-76
2023/07/24 02:49:02;;;;;;;6.05;2.97;;;;;;;19.24;100.00;99412.16;5022346;28;20496;-74
2023/07/24 02:51:32;;;;;;;4.53;2.65;;;;;;;19.32;100.00;99429.38;5006635;28;20042;-76
2023/07/24 02:54:01;;;;;;;3.83;2.40;;;;;;;19.37;100.00;99437.78;5007464;28;20060;-74
2023/07/24 02:56:29;;;;;;;4.05;2.95;;;;;;;19.34;100.00;99433.59;5016615;28;20046;-76
2023/07/24 02:58:58;;;;;;;7.90;3.05;;;;;;;19.31;100.00;99439.25;5018129;28;20050;-75
2023/07/24 03:01:26;;;;;;;4.88;2.90;;;;;;;19.25;100.00;99442.53;5008649;28;20046;-76
2023/07/24 03:03:54;;;;;;;5.38;2.83;;;;;;;19.14;100.00;99440.06;5022809;28;20048;-76
2023/07/24 03:06:22;;;;;;;4.15;2.83;;;;;;;19.03;100.00;99421.50;4997357;28;20050;-75
2023/07/24 03:08:50;;;;;;;8.52;2.78;;;;;;;19.08;100.00;99444.19;5026904;28;20144;-76
2023/07/24 03:11:20;;;;;;;3.78;2.65;;;;;;;19.00;100.00;99445.94;5005608;28;20059;-75
2023/07/24 03:13:48;;;;;;;3.75;2.58;;;;;;;18.85;100.00;99438.38;5021841;28;20064;-75
2023/07/24 03:16:17;;;;;;;3.60;2.75;;;;;;;18.90;100.00;99452.16;5011502;28;20050;-75
2023/07/24 03:18:45;;;;;;;6.55;2.83;;;;;;;18.86;100.00;99455.31;5028272;28;20038;-75
2023/07/24 03:21:13;;;;;;;3.78;2.65;;;;;;;18.89;100.00;99457.66;5032873;28;20042;-76
2023/07/24 03:23:41;;;;;;;5.45;2.72;;;;;;;18.90;100.00;99436.06;5040353;28;20064;-77
2023/07/24 03:26:09;;;;;;;4.15;2.80;;;;;;;18.92;100.00;99415.31;5003076;28;20053;-77
2023/07/24 03:28:38;;;;;;;5.43;2.70;;;;;;;18.91;100.00;99410.09;5026887;28;20044;-76
2023/07/24 03:31:07;;;;;;;4.73;2.77;;;;;;;18.85;100.00;99416.06;5006668;28;20053;-76
2023/07/24 03:33:35;;;;;;;4.82;2.80;;;;;;;18.84;100.00;99428.63;5025572;28;20500;-76
2023/07/24 03:36:04;;;;;;;4.03;2.58;;;;;;;18.72;100.00;99427.13;5026074;28;20048;-76
2023/07/24 03:38:32;;;;;;;3.67;2.78;;;;;;;18.68;100.00;99430.25;5022571;28;20053;-77
2023/07/24 03:41:00;;;;;;;4.63;2.85;;;;;;;18.67;100.00;99409.78;5022692;28;20053;-76
2023/07/24 03:43:31;;;;;;;5.55;3.00;;;;;;;18.66;100.00;99408.94;5028179;28;20054;-76
2023/07/24 03:46:01;;;;;;;5.90;3.20;;;;;;;18.63;100.00;99394.97;5028847;28;20045;-76
2023/07/24 03:48:29;;;;;;;6.53;3.33;;;;;;;18.54;100.00;99364.50;5017675;28;20053;-76
2023/07/24 03:51:00;;;;;;;6.20;3.10;;;;;;;18.66;100.00;99386.63;5024962;28;20041;-76
2023/07/24 03:53:28;;;;;;;7.13;4.30;;;;;;;18.62;100.00;99382.56;5022546;28;20046;-76
2023/07/24 03:56:00;;;;;;;6.60;3.47;;;;;;;18.53;100.00;99369.03;5019817;28;20053;-76
2023/07/24 03:58:28;;;;;;;4.72;3.15;;;;;;;18.64;100.00;99375.22;5029622;28;20490;-76
2023/07/24 04:00:56;;;;;;;7.03;3.53;;;;;;;18.61;100.00;99357.59;5024588;28;20052;-77
2023/07/24 04:03:29;;;;;;;5.32;3.05;;;;;;;18.65;100.00;99356.31;5022318;28;20057;-76
2023/07/24 04:05:58;;;;;;;8.30;3.45;;;;;;;18.71;100.00;99353.03;5023235;28;20049;-76
2023/07/24 04:08:26;;;;;;;6.50;3.20;;;;;;;18.76;100.00;99340.00;5045689;28;20041;-76
2023/07/24 04:10:55;;;;;;;7.07;3.03;;;;;;;18.81;100.00;99339.56;5008066;28;20060;-76
2023/07/24 04:13:24;;;;;;;7.97;3.33;;;;;;;18.77;100.00;99352.41;5031450;28;20041;-76
2023/07/24 04:15:52;;;;;;;6.32;3.70;;;;;;;18.73;100.00;99355.56;5014587;28;20107;-76
2023/07/24 04:18:20;;;;;;;6.85;3.85;;;;;;;18.69;100.00;99357.69;5027210;28;20038;-76
2023/07/24 04:20:49;;;;;;;4.95;2.95;;;;;;;18.72;100.00;99370.81;5041709;28;20064;-75
2023/07/24 04:23:19;;;;;;;7.88;3.70;;;;;;;18.76;100.00;99374.03;5038932;28;20049;-77
2023/07/24 04:25:47;;;;;;;4.25;3.25;;;;;;;18.84;100.00;99366.09;5033738;28;20057;-76
2023/07/24 04:28:15;;;;;;;5.78;3.03;;;;;;;19.01;100.00;99372.50;5006842;28;20123;-76
2023/07/24 04:30:43;;;;;;;8.05;3.83;;;;;;;19.13;100.00;99366.75;5024964;28;20102;-76
2023/07/24 04:33:14;;;;;;;13.50;4.93;;;;;;;19.19;100.00;99370.69;5006287;28;20092;-76
2023/07/24 04:35:43;;;;;;;4.80;3.30;;;;;;;19.21;100.00;99396.34;5002662;28;20065;-76
2023/07/24 04:38:13;;;;;;;6.57;3.63;;;;;;;19.23;100.00;99399.72;5012878;28;20072;-76
2023/07/24 04:40:44;;;;;;;6.63;3.67;;;;;;;19.23;100.00;99380.94;5022861;28;20050;-76
2023/07/24 04:43:12;;;;;;;4.38;3.30;;;;;;;19.28;100.00;99381.34;5027596;28;20115;-76
2023/07/24 04:45:40;;;;;;;6.88;4.13;;;;;;;19.34;100.00;99390.63;5023483;28;20056;-76
2023/07/24 04:48:08;;;;;;;5.85;3.92;;;;;;;19.38;100.00;99393.84;5013642;28;20488;-76
2023/07/24 04:50:35;;;;;;;6.85;4.07;;;;;;;19.39;100.00;99387.47;5031093;28;20060;-76
2023/07/24 04:53:03;;;;;;;5.95;3.60;;;;;;;19.39;100.00;99380.28;5026130;28;20197;-76
2023/07/24 04:55:33;;;;;;;9.02;3.97;;;;;;;19.40;100.00;99391.84;5031350;28;20140;-77
2023/07/24 04:58:00;;;;;;;8.18;4.22;;;;;;;19.43;100.00;99388.88;5015362;28;20517;-76
2023/07/24 05:00:29;;;;;;;6.45;4.18;;;;;;;19.54;100.00;99385.97;5024073;28;20065;-76
2023/07/24 05:02:57;;;;;;;7.65;4.63;;;;;;;19.60;100.00;99388.06;5020248;28;20103;-76
2023/07/24 05:05:25;;;;;;;5.90;4.25;;;;;;;19.64;100.00;99391.28;5020563;28;20073;-76
2023/07/24 05:07:53;;;;;;;8.70;4.80;;;;;;;19.67;100.00;99385.63;5022047;28;20104;-75
2023/07/24 05:10:21;;;;;;;9.25;4.68;;;;;;;19.69;100.00;99383.59;5028419;28;20548;-76
2023/07/24 05:12:50;;;;;;;9.70;4.78;;;;;;;19.69;100.00;99372.84;5022939;28;20050;-76
2023/07/24 05:15:19;;;;;;;10.25;5.65;;;;;;;19.73;100.00;99379.59;5022268;28;20056;-76
2023/07/24 05:17:47;;;;;;;10.07;5.80;;;;;;;19.74;100.00;99384.84;5022287;28;20057;-76
2023/07/24 05:20:15;;;;;;;8.75;5.25;;;;;;;19.63;100.00;99374.34;5014471;28;20045;-76
2023/07/24 05:22:43;;;;;;;8.73;5.65;;;;;;;19.67;100.00;99386.47;5001400;28;20058;-76
2023/07/24 05:25:11;;;;;;;7.38;5.25;;;;;;;19.67;100.00;99396.38;5013959;28;20041;-76
2023/07/24 05:27:39;;;;;;;11.05;5.20;;;;;;;19.66;100.00;99382.09;5019113;28;20046;-77
2023/07/24 05:30:12;;;;;;;8.57;5.75;;;;;;;19.73;100.00;99398.41;4984745;28;20046;-78
2023/07/24 05:32:40;;;;;;;8.75;5.85;;;;;;;19.54;100.00;99365.34;5023929;28;20052;-77
2023/07/24 05:35:09;;;;;;;10.57;5.30;;;;;;;19.76;100.00;99407.00;5020780;28;20046;-76
2023/07/24 05:37:38;;;;;;;9.98;5.88;;;;;;;19.77;100.00;99406.00;5018164;28;20100;-75
2023/07/24 05:40:07;;;;;;;14.00;6.18;;;;;;;19.79;100.00;99395.13;5022062;28;20050;-76
2023/07/24 05:42:43;;;;;;;8.50;5.65;;;;;;;19.82;99.50;99384.91;5022403;28;20049;-77
2023/07/24 05:45:14;;;;;;;9.90;5.80;;;;;;;19.74;98.66;99347.22;5014414;28;20513;-77
2023/07/24 05:47:42;;;;;;;9.93;6.45;;;;;;;19.93;97.50;99373.91;5005017;28;20057;-76
2023/07/24 05:50:13;;;;;;;10.13;6.07;;;;;;;19.88;98.68;99352.03;5022445;28;20041;-77
2023/07/24 05:52:41;;;;;;;11.00;5.95;;;;;;;20.08;97.12;99373.34;5032553;28;20419;-75
2023/07/24 05:55:11;;;;;;;10.95;6.90;;;;;;;20.22;97.19;99372.75;5018590;28;20073;-76
2023/07/24 05:57:40;;;;;;;10.43;6.38;;;;;;;20.36;96.79;99380.28;5019069;28;20099;-75
2023/07/24 06:00:09;;;;;;;9.90;6.68;;;;;;;20.45;95.44;99365.91;5029951;28;20130;-76
2023/07/24 06:02:41;;;;;;;13.38;6.63;;;;;;;20.48;95.19;99365.53;5017333;28;20050;-76
2023/07/24 06:05:09;;;;;;;14.20;6.88;;;;;;;20.61;94.31;99376.72;5027802;28;20519;-78
2023/07/24 06:07:37;;;;;;;14.75;6.38;;;;;;;20.51;94.79;99345.56;5009352;28;20437;-76
2023/07/24 06:10:06;;;;;;;11.45;6.50;;;;;;;20.63;95.33;99357.72;5021827;28;20052;-77
2023/07/24 06:12:35;;;;;;;12.13;6.40;;;;;;;20.54;96.08;99364.06;5019183;28;20041;-77
2023/07/24 06:15:04;;;;;;;14.38;6.72;;;;;;;20.50;96.73;99368.91;5025371;28;20046;-79
2023/07/24 06:17:34;;;;;;;10.48;6.38;;;;;;;20.55;96.99;99376.53;5031039;28;20545;-77
2023/07/24 06:20:03;;;;;;;8.90;6.30;;;;;;;20.64;97.24;99371.00;5008070;28;20049;-77
2023/07/24 06:22:31;;;;;;;9.90;6.45;;;;;;;20.82;93.47;99376.31;5014514;28;20049;-77
2023/07/24 06:25:01;;;;;;;9.85;6.72;;;;;;;20.90;91.04;99375.50;5034017;28;20091;-77
2023/07/24 06:27:30;;;;;;;10.10;6.20;;;;;;;20.95;91.80;99375.84;5022069;28;20076;-77
2023/07/24 06:29:58;;;;;;;10.95;6.65;;;;;;;21.11;89.50;99378.59;5029907;28;20041;-78
2023/07/24 06:32:42;;;;;;;10.60;7.00;;;;;;;21.31;86.74;99369.25;5043917;28;20460;-76
2023/07/24 06:35:12;;;;;;;11.88;6.88;;;;;;;21.52;85.26;99365.25;5020092;28;20124;-78
2023/07/24 06:37:40;;;;;;;10.05;6.45;;;;;;;21.77;83.15;99364.25;5013085;28;20505;-75
2023/07/24 06:40:09;;;;;;;9.40;6.40;;;;;;;21.99;80.85;99344.75;5029707;28;20497;-76
2023/07/24 06:42:37;;;;;;;11.68;7.93;;;;;;;22.37;79.85;99366.56;5022976;28;20041;-75
2023/07/24 06:45:08;;;;;;;14.40;7.18;;;;;;;22.61;77.46;99363.81;5031103;28;20045;-76
2023/07/24 06:47:36;;;;;;;10.57;6.55;;;;;;;22.75;74.11;99362.25;5014734;28;20564;-77
2023/07/24 06:50:06;;;;;;;10.40;6.63;;;;;;;22.79;73.67;99349.28;4989659;28;20076;-76
2023/07/24 06:52:35;;;;;;;11.00;6.93;;;;;;;22.93;72.49;99362.03;4991624;28;20065;-76
2023/07/24 06:55:04;;;;;;;11.03;6.30;;;;;;;22.69;72.60;99355.66;5027255;28;20049;-76
2023/07/24 06:57:32;;;;;;;10.57;6.25;;;;;;;22.61;73.70;99376.47;5018621;28;20053;-75
2023/07/24 07:00:00;;;;;;;9.75;5.93;;;;;;;22.36;73.34;99364.88;5026179;28;20140;-77
2023/07/24 07:02:32;;;;;;;13.02;6.53;;;;;;;22.45;76.07;99369.25;5026447;28;20052;-76
2023/07/24 07:05:00;;;;;;;8.43;5.35;;;;;;;22.56;74.56;99376.97;5015493;28;20462;-76
2023/07/24 07:07:28;;;;;;;9.25;4.82;;;;;;;22.59;76.13;99378.47;5026305;28;20054;-76
2023/07/24 07:09:58;;;;;;;9.13;5.15;;;;;;;22.75;74.17;99368.47;5032459;28;20512;-76
2023/07/24 07:12:26;;;;;;;6.30;4.57;;;;;;;22.77;73.28;99345.91;5025934;28;20057;-76
2023/07/24 07:14:54;;;;;;;6.97;4.93;;;;;;;23.28;71.38;99369.59;5022655;28;20056;-76
2023/07/24 07:17:23;;;;;;;8.18;5.15;;;;;;;23.75;70.12;99379.44;5020037;28;20041;-77
2023/07/24 07:19:51;;;;;;;9.38;5.13;;;;;;;23.87;66.27;99364.47;5027500;28;20060;-76
2023/07/24 07:22:19;;;;;;;8.85;4.90;;;;;;;24.32;65.30;99381.66;5020033;28;20033;-75
2023/07/24 07:24:47;;;;;;;7.82;4.57;;;;;;;24.36;63.76;99372.16;5025888;28;20525;-76
2023/07/24 07:27:17;;;;;;;7.60;4.45;;;;;;;24.38;62.62;99354.72;5020759;28;20048;-76
2023/07/24 07:29:46;;;;;;;9.30;4.50;;;;;;;24.54;63.35;99347.44;5022716;28;20071;-76
2023/07/24 07:32:14;;;;;;;7.05;4.80;;;;;;;24.80;62.05;99351.34;5012358;28;20049;-75
2023/07/24 07:34:42;;;;;;;7.88;3.80;;;;;;;24.68;59.82;99355.56;5012178;28;20056;-75
2023/07/24 07:37:09;;;;;;;6.05;4.05;;;;;;;24.58;60.67;99368.50;5015447;28;20076;-75
2023/07/24 07:39:37;;;;;;;9.05;4.30;;;;;;;24.59;61.38;99362.06;5008150;28;20111;-75
2023/07/24 07:42:06;;;;;;;7.75;3.90;;;;;;;24.59;60.52;99343.13;5019195;28;20046;-75
2023/07/24 07:44:47;;;;;;;4.50;3.20;;;;;;;24.18;60.37;99358.09;5030490;28;20045;-75
2023/07/24 07:47:16;;;;;;;6.03;3.53;;;;;;;24.13;62.59;99345.13;5018780;28;20488;-75
2023/07/24 07:49:44;;;;;;;4.55;3.17;;;;;;;24.32;61.38;99341.91;5025081;28;20077;-76
2023/07/24 07:52:12;;;;;;;5.45;3.60;;;;;;;24.65;60.16;99334.25;5023901;28;20063;-75
2023/07/24 07:54:40;;;;;;;5.93;3.58;;;;;;;24.79;58.35;99332.56;5027074;28;20046;-76
2023/07/24 07:57:08;;;;;;;5.75;3.70;;;;;;;24.75;59.72;99332.09;5021084;28;20737;-76
2023/07/24 07:59:39;;;;;;;5.85;3.63;;;;;;;24.52;59.53;99339.50;5027119;28;20049;-76
2023/07/24 08:02:09;;;;;;;4.18;3.38;;;;;;;24.28;61.06;99337.91;5020055;28;20045;-76
2023/07/24 08:04:37;;;;;;;4.53;3.40;;;;;;;24.23;62.17;99342.16;5028206;28;20044;-77
2023/07/24 08:07:05;;;;;;;7.18;3.67;;;;;;;23.99;62.94;99338.66;5005429;28;20524;-76
2023/07/24 08:09:35;;;;;;;5.28;3.85;;;;;;;23.79;63.99;99337.50;5020126;28;20042;-76
2023/07/24 08:12:04;;;;;;;5.82;3.60;;;;;;;23.66;65.23;99343.50;5021388;28;20505;-76
2023/07/24 08:14:35;;;;;;;7.25;3.70;;;;;;;23.68;66.43;99340.63;5007744;28;20034;-76
2023/07/24 08:17:03;;;;;;;5.78;3.45;;;;;;;23.77;65.65;99329.56;5015347;28;20048;-75
2023/07/24 08:19:33;;;;;;;5.15;3.70;;;;;;;23.89;65.74;99321.88;4996478;28;20182;-76
2023/07/24 08:22:02;;;;;;;;;;;;;;;24.10;63.79;99321.16;5011808;28;20102;-76
2023/07/24 08:24:31;;;;;;;7.75;3.42;;;;;;;24.42;63.11;99314.56;5026505;28;19921;-75
2023/07/24 08:26:58;;;;;;;5.57;3.70;;;;;;;24.49;61.90;99312.81;5037084;28;20057;-76
2023/07/24 08:29:26;;;;;;;5.53;3.90;;;;;;;24.26;63.05;99314.75;5031664;28;20046;-76
2023/07/24 08:31:57;;;;;;;5.70;3.63;;;;;;;23.97;64.24;99315.53;5026878;28;20038;-76
2023/07/24 08:34:25;;;;;;;;;;;;;;;23.81;65.29;99316.53;5024785;28;20046;-76
2023/07/24 08:36:54;;;;;;;6.20;3.70;;;;;;;23.70;64.94;99306.16;5051107;28;19932;-77
2023/07/24 08:39:22;;;;;;;6.43;3.42;;;;;;;23.72;65.12;99287.91;5048942;28;20026;-76
2023/07/24 08:41:51;;;;;;;6.15;3.10;;;;;;;23.82;64.80;99315.50;5047641;28;20048;-75
2023/07/24 08:44:24;;;;;;;7.82;3.75;;;;;;;23.85;64.82;99298.09;5021373;28;20133;-76
2023/07/24 08:46:52;;;;;;;6.32;3.40;;;;;;;23.83;64.13;99276.63;5016321;28;20062;-76
2023/07/24 08:49:21;;;;;;;7.05;4.00;;;;;;;24.03;63.96;99295.88;5029279;28;20052;-76
2023/07/24 08:51:49;;;;;;;5.25;3.83;;;;;;;23.87;65.08;99275.25;5007970;28;20398;-76
2023/07/24 08:54:21;;;;;;;6.68;3.50;;;;;;;24.09;62.54;99295.97;5025073;28;20038;-75
2023/07/24 08:56:53;;;;;;;7.07;3.90;;;;;;;24.24;63.40;99301.41;5019487;28;20064;-75
2023/07/24 08:59:22;;;;;;;5.80;3.47;;;;;;;24.39;61.59;99304.16;5009976;28;20037;-75
2023/07/24 09:01:50;;;;;;;5.65;3.22;;;;;;;24.53;61.70;99299.75;5003758;28;20045;-75
2023/07/24 09:04:19;;;;;;;3.95;3.20;;;;;;;24.48;60.42;99292.19;5017052;28;20037;-75
2023/07/24 09:06:51;;;;;;;4.97;2.78;;;;;;;24.88;60.57;99300.78;5018708;28;20057;-75
2023/07/24 09:09:21;;;;;;;4.03;3.00;;;;;;;25.08;58.91;99305.44;5023003;28;20045;-75
2023/07/24 09:11:51;;;;;;;5.93;3.60;;;;;;;25.30;58.87;99284.66;5011090;28;20410;-75
2023/07/24 09:14:23;;;;;;;7.88;3.30;;;;;;;25.77;57.33;99291.34;5024212;28;20046;-76
2023/07/24 09:17:02;;;;;;;7.97;3.38;;;;;;;25.77;55.36;99294.06;5011040;28;20046;-76
2023/07/24 09:19:31;;;;;;;4.85;3.05;;;;;;;25.88;57.12;99287.25;5015703;28;20080;-76
2023/07/24 09:22:20;;;;;;;8.52;3.15;;;;;;;25.86;55.65;99282.88;5025288;28;20144;-75
2023/07/24 09:24:53;;;;;;;10.27;3.60;;;;;;;25.90;56.32;99264.31;5024405;28;20457;-76
2023/07/24 09:27:27;;;;;;;6.80;3.17;;;;;;;25.84;55.69;99267.81;5018251;28;20714;-76
2023/07/24 09:29:56;;;;;;;5.47;3.42;;;;;;;25.67;56.36;99264.56;5013423;28;20077;-75
2023/07/24 09:32:26;;;;;;;6.95;3.20;;;;;;;25.55;56.90;99251.69;5018949;28;20042;-75
2023/07/24 09:34:55;;;;;;;4.93;3.25;;;;;;;25.30;56.98;99246.72;5017671;28;20060;-75
2023/07/24 09:37:28;;;;;;;4.63;2.90;;;;;;;25.35;57.95;99238.81;5021828;28;20081;-75
2023/07/24 09:39:57;;;;;;;4.78;2.92;;;;;;;25.35;57.92;99237.97;5034857;28;20053;-75
2023/07/24 09:42:31;;;;;;;6.93;3.35;;;;;;;25.39;58.15;99229.25;5020257;28;20092;-76
2023/07/24 09:45:00;;;;;;;4.70;3.38;;;;;;;25.53;58.25;99224.78;5023284;28;20053;-75
2023/07/24 09:47:28;;;;;;;4.95;3.40;;;;;;;25.68;56.18;99208.47;5021954;28;20069;-76
2023/07/24 09:50:17;;;;;;;4.97;3.15;;;;;;;25.78;55.41;99220.66;5015007;28;20144;-76
2023/07/24 09:52:48;;;;;;;4.13;3.30;;;;;;;25.48;56.88;99201.00;5009606;28;20072;-76
2023/07/24 09:55:22;;;;;;;7.28;3.33;;;;;;;25.48;58.15;99221.84;5025978;28;20103;-75
2023/07/24 09:57:54;;;;;;;5.90;3.50;;;;;;;25.47;57.32;99226.44;5020710;28;20097;-76
2023/07/24 10:00:25;;;;;;;7.15;3.63;;;;;;;25.20;58.19;99150.50;5009804;28;20065;-75
2023/07/24 10:02:53;;;;;;;8.60;3.70;;;;;;;25.61;58.46;99211.09;5024369;28;20042;-75
2023/07/24 10:05:21;;;;;;;4.65;3.35;;;;;;;25.75;57.23;99221.03;5011016;28;20065;-75
2023/07/24 10:07:51;;;;;;;6.10;4.00;;;;;;;25.88;56.01;99219.44;5015494;28;20142;-75
2023/07/24 10:10:22;;;;;;;5.63;3.78;;;;;;;26.25;53.34;99226.34;5025389;28;20046;-76
2023/07/24 10:12:50;;;;;;;5.80;4.07;;;;;;;26.44;52.00;99212.09;4989205;28;20050;-75
2023/07/24 10:15:20;;;;;;;5.57;3.92;;;;;;;26.70;51.07;99222.19;5025530;28;20067;-76
2023/07/24 10:17:48;;;;;;;4.93;3.42;;;;;;;26.73;50.87;99243.50;5016479;28;20052;-76
2023/07/24 10:20:17;;;;;;;6.32;3.67;;;;;;;26.47;50.71;99236.91;5022858;28;20483;-76
2023/07/24 10:22:46;;;;;;;6.60;3.88;;;;;;;26.39;51.18;99237.09;4999647;28;20046;-75
2023/07/24 10:25:16;;;;;;;5.13;4.28;;;;;;;26.44;50.57;99237.34;5011414;28;20451;-75
2023/07/24 10:27:46;;;;;;;6.65;4.20;;;;;;;26.46;51.67;99245.25;5024224;28;20127;-77
2023/07/24 10:30:17;;;;;;;6.40;3.95;;;;;;;26.31;51.58;99212.00;5033301;28;20045;-75
2023/07/24 10:33:11;;;;;;;6.20;4.50;;;;;;;26.44;51.18;99231.91;5038033;28;20045;-75
2023/07/24 10:35:42;;;;;;;5.32;3.95;;;;;;;26.60;50.07;99241.59;5023863;28;20057;-76
2023/07/24 10:38:10;;;;;;;;;;;;;;;26.47;48.99;99230.66;5018287;28;20095;-76
2023/07/24 10:40:38;;;;;;;7.50;4.05;;;;;;;26.39;48.40;99226.25;5027009;28;20293;-75
2023/07/24 10:43:08;;;;;;;6.55;4.50;;;;;;;26.51;48.33;99240.06;5029253;28;20464;-77
2023/07/24 10:45:48;;;;;;;6.20;4.10;;;;;;;26.44;46.97;99237.34;5030083;28;20045;-77
2023/07/24 10:48:18;;;;;;;8.20;4.85;;;;;;;26.13;46.25;99220.66;5017571;28;20041;-77
2023/07/24 10:50:48;;;;;;;8.32;4.68;;;;;;;25.85;47.17;99235.06;5027974;28;20077;-75
2023/07/24 10:53:22;;;;;;;6.03;4.13;;;;;;;25.84;46.69;99227.13;5024113;28;20048;-75
2023/07/24 10:55:51;;;;;;;6.63;4.97;;;;;;;25.94;46.51;99221.38;5044830;28;20074;-76
2023/07/24 10:58:26;;;;;;;6.95;4.70;;;;;;;25.92;47.34;99235.13;5006315;28;20100;-76
2023/07/24 11:00:58;;;;;;;5.93;4.28;;;;;;;26.04;47.24;99222.69;5031651;28;20049;-76
2023/07/24 11:03:28;;;;;;;8.23;4.80;;;;;;;25.88;48.12;99231.13;5017690;28;20051;-76
2023/07/24 11:05:57;;;;;;;6.80;4.70;;;;;;;25.76;48.99;99230.03;5023979;28;20069;-76
2023/07/24 11:08:25;;;;;;;9.27;4.68;;;;;;;25.68;50.61;99208.47;5019576;28;20048;-75
2023/07/24 11:10:55;;;;;;;4.78;3.97;;;;;;;25.69;51.34;99199.28;5033478;28;20151;-76
2023/07/24 11:13:25;;;;;;;5.97;3.90;;;;;;;25.84;51.13;99194.59;5038682;28;20042;-75
2023/07/24 11:15:55;;;;;;;5.30;4.22;;;;;;;25.96;50.62;99216.59;5026712;28;20490;-76
2023/07/24 11:18:26;;;;;;;8.40;4.18;;;;;;;26.20;50.32;99216.94;5020827;28;20111;-75
2023/07/24 11:21:13;;;;;;;5.45;4.07;;;;;;;26.01;50.63;99205.97;5028613;28;20046;-75
2023/07/24 11:23:46;;;;;;;5.38;3.92;;;;;;;26.21;51.36;99196.91;5028713;28;20042;-75
2023/07/24 11:26:15;;;;;;;6.97;3.90;;;;;;;26.29;50.35;99186.97;5032166;28;20046;-77
2023/07/24 11:28:44;;;;;;;5.05;4.20;;;;;;;26.34;50.14;99170.88;5013109;28;20766;-76
2023/07/24 11:31:14;;;;;;;6.65;3.90;;;;;;;26.21;49.95;99196.91;5043689;28;20120;-76
2023/07/24 11:33:44;;;;;;;5.30;3.92;;;;;;;25.99;51.37;99195.31;5034216;28;20080;-76
2023/07/24 11:36:12;;;;;;;6.33;3.50;;;;;;;26.21;52.53;99194.19;5012938;28;20056;-76
2023/07/24 11:38:40;;;;;;;6.80;4.40;;;;;;;26.27;51.37;99194.44;5030052;28;20583;-76
2023/07/24 11:41:10;;;;;;;7.40;4.25;;;;;;;26.43;51.85;99173.25;5041579;28;20044;-75
2023/07/24 11:43:48;;;;;;;7.72;4.63;;;;;;;26.77;49.67;99187.72;5033288;28;20046;-75